Time;durP1;ratioP1;P1;durP2;ratioP2;P2;SDS_P1;SDS_P2;PMS_P1;PMS_P2;Temp;Humidity;BMP_temperature;BMP_pressure;BME280_temperature;BME280_humidity;BME280_pressure;Samples;Min_cycle;Max_cycle;Signal;HPM_P1;HPM_P2
2024/02/26 00:00:21;;;;;;;3.17;1.58;;;7.70;99.90;;;;;;4091535;28;20039;-70
2024/02/26 00:02:21;;;;;;;4.78;1.77;;;7.70;99.90;;;;;;4076456;29;20535;-70
2024/02/26 00:04:22;;;;;;;2.83;1.35;;;7.70;99.90;;;;;;4093881;28;20122;-70
2024/02/26 00:06:26;;;;;;;2.15;1.30;;;7.80;99.90;;;;;;4086887;28;20043;-70
2024/02/26 00:08:26;;;;;;;2.95;1.48;;;7.70;99.90;;;;;;4092932;28;20054;-71
2024/02/26 00:10:27;;;;;;;5.88;1.60;;;7.80;99.90;;;;;;4095554;28;20660;-71
2024/02/26 00:12:28;;;;;;;3.58;1.67;;;7.80;99.90;;;;;;4094103;28;20031;-71
2024/02/26 00:14:29;;;;;;;2.50;1.20;;;7.90;99.90;;;;;;4100320;28;20057;-70
2024/02/26 00:16:30;;;;;;;3.55;1.88;;;7.90;99.90;;;;;;4093207;28;20065;-70
2024/02/26 00:18:31;;;;;;;3.80;1.75;;;7.80;99.90;;;;;;4093230;28;20572;-70
2024/02/26 00:20:31;;;;;;;2.65;1.40;;;7.80;99.90;;;;;;4092896;28;20032;-71
2024/02/26 00:22:32;;;;;;;3.30;1.77;;;7.80;99.90;;;;;;4094329;28;20507;-70
2024/02/26 00:24:33;;;;;;;3.75;1.90;;;7.80;99.90;;;;;;4093918;28;20478;-66
2024/02/26 00:26:33;;;;;;;3.15;1.38;;;7.70;99.90;;;;;;4092807;28;20515;-67
2024/02/26 00:28:34;;;;;;;3.75;1.85;;;7.70;99.90;;;;;;4094284;28;20115;-67
2024/02/26 00:30:35;;;;;;;4.25;2.03;;;7.70;99.90;;;;;;4095239;28;20417;-67
2024/02/26 00:32:35;;;;;;;3.28;1.83;;;7.60;99.90;;;;;;4097710;28;20507;-67
2024/02/26 00:34:36;;;;;;;3.72;1.65;;;7.60;99.90;;;;;;4097525;28;20047;-65
2024/02/26 00:36:36;;;;;;;3.80;1.85;;;7.50;99.90;;;;;;4079147;29;20350;-67
2024/02/26 00:38:37;;;;;;;3.03;1.58;;;7.50;99.90;;;;;;4096900;28;20032;-67
2024/02/26 00:40:38;;;;;;;4.78;2.08;;;7.50;99.90;;;;;;4095369;28;20457;-66
2024/02/26 00:42:38;;;;;;;3.58;1.67;;;7.50;99.90;;;;;;4101017;28;20031;-66
2024/02/26 00:44:39;;;;;;;8.20;2.78;;;7.40;99.90;;;;;;4097530;28;20481;-68
2024/02/26 00:46:40;;;;;;;5.03;2.67;;;7.30;99.90;;;;;;4096336;28;20081;-69
2024/02/26 00:48:40;;;;;;;5.97;2.88;;;7.30;99.90;;;;;;4097725;28;20031;-66
2024/02/26 00:50:41;;;;;;;4.65;2.53;;;7.40;99.90;;;;;;4096541;28;20497;-66
2024/02/26 00:52:41;;;;;;;4.63;2.35;;;7.40;99.90;;;;;;4104958;28;20031;-66
2024/02/26 00:54:42;;;;;;;4.30;1.65;;;7.50;99.90;;;;;;4097015;28;20031;-67
2024/02/26 00:56:43;;;;;;;4.75;1.92;;;7.50;99.90;;;;;;4095864;28;20508;-66
2024/02/26 00:58:43;;;;;;;3.47;1.83;;;7.60;99.90;;;;;;4096663;28;20516;-67
2024/02/26 01:00:44;;;;;;;4.18;1.95;;;7.60;99.90;;;;;;4095517;28;20421;-67
2024/02/26 01:02:47;;;;;;;2.70;1.35;;;7.70;99.90;;;;;;4095935;28;20090;-67
2024/02/26 01:04:48;;;;;;;2.80;1.70;;;7.70;99.90;;;;;;4096118;28;20035;-67
2024/02/26 01:06:49;;;;;;;3.67;1.65;;;7.70;99.90;;;;;;4096363;28;20118;-65
2024/02/26 01:08:50;;;;;;;2.67;1.67;;;7.70;99.90;;;;;;4092215;28;20242;-64
2024/02/26 01:10:50;;;;;;;2.85;1.75;;;7.70;99.90;;;;;;4101601;28;20031;-65
2024/02/26 01:12:51;;;;;;;2.83;1.70;;;7.70;99.90;;;;;;4089162;29;20576;-66
2024/02/26 01:14:52;;;;;;;5.20;1.85;;;7.70;99.90;;;;;;4097043;28;20063;-65
2024/02/26 01:16:52;;;;;;;3.72;1.88;;;7.70;99.90;;;;;;4095925;28;20031;-65
2024/02/26 01:18:53;;;;;;;6.55;2.20;;;7.70;99.90;;;;;;4078896;29;20039;-66
2024/02/26 01:20:54;;;;;;;2.45;1.80;;;7.60;99.90;;;;;;4092149;28;20110;-66
2024/02/26 01:22:54;;;;;;;3.42;1.90;;;7.60;99.90;;;;;;4095335;28;20039;-65
2024/02/26 01:24:56;;;;;;;4.95;2.28;;;7.60;99.90;;;;;;4095512;28;20133;-66
2024/02/26 01:26:57;;;;;;;5.80;2.30;;;7.60;99.90;;;;;;4079784;29;20036;-67
2024/02/26 01:28:58;;;;;;;6.35;2.35;;;7.60;99.90;;;;;;4090930;28;20043;-65
2024/02/26 01:30:59;;;;;;;3.38;2.00;;;7.60;99.90;;;;;;4094574;28;20051;-66
2024/02/26 01:33:00;;;;;;;7.23;2.93;;;7.50;99.90;;;;;;4096352;28;20031;-68
2024/02/26 01:35:03;;;;;;;3.60;1.58;;;7.50;99.90;;;;;;4095084;28;20400;-67
2024/02/26 01:37:04;;;;;;;4.97;2.10;;;7.50;99.90;;;;;;4097939;28;20379;-65
2024/02/26 01:39:05;;;;;;;3.95;2.13;;;7.50;99.90;;;;;;4093631;28;20146;-66
2024/02/26 01:41:06;;;;;;;3.42;2.20;;;7.50;99.90;;;;;;4103916;28;20034;-70
2024/02/26 01:43:07;;;;;;;6.20;2.25;;;7.40;99.90;;;;;;4092262;29;20516;-66
2024/02/26 01:45:15;;;;;;;6.07;2.15;;;7.40;99.90;;;;;;4095865;28;20043;-69
2024/02/26 01:47:17;;;;;;;4.78;2.30;;;7.40;99.90;;;;;;4095661;28;20068;-70
2024/02/26 01:49:17;;;;;;;6.18;2.30;;;7.40;99.90;;;;;;4078152;29;20485;-70
2024/02/26 01:51:18;;;;;;;3.47;1.95;;;7.40;99.90;;;;;;4095178;28;20111;-70
2024/02/26 01:53:19;;;;;;;4.97;2.13;;;7.40;99.90;;;;;;4096349;28;20031;-71
2024/02/26 01:55:23;;;;;;;7.07;2.60;;;7.50;99.90;;;;;;4099342;28;20098;-70
2024/02/26 01:57:24;;;;;;;5.93;2.40;;;7.40;99.90;;;;;;4097672;28;20634;-70
2024/02/26 01:59:24;;;;;;;5.53;2.25;;;7.40;99.90;;;;;;4092135;28;20121;-70
2024/02/26 02:01:26;;;;;;;5.53;2.13;;;7.40;99.90;;;;;;4083330;29;20521;-71
2024/02/26 02:03:28;;;;;;;5.43;2.10;;;7.40;99.90;;;;;;4095031;28;20106;-70
2024/02/26 02:05:29;;;;;;;3.58;2.05;;;7.40;99.90;;;;;;4093101;28;20063;-71
2024/02/26 02:07:30;;;;;;;4.45;2.13;;;7.40;99.90;;;;;;4096749;28;20517;-70
2024/02/26 02:09:31;;;;;;;4.10;2.00;;;7.40;99.90;;;;;;4092864;28;20038;-70
2024/02/26 02:11:33;;;;;;;4.90;2.15;;;7.40;99.90;;;;;;4079342;29;20463;-70
2024/02/26 02:13:34;;;;;;;2.22;1.52;;;7.40;99.90;;;;;;4095080;28;20098;-70
2024/02/26 02:15:35;;;;;;;3.08;1.95;;;7.50;99.90;;;;;;4093582;28;20035;-70
2024/02/26 02:17:36;;;;;;;3.03;1.40;;;7.50;99.90;;;;;;4094073;28;20043;-70
2024/02/26 02:19:36;;;;;;;1.45;1.33;;;7.40;99.90;;;;;;4093840;28;20067;-70
2024/02/26 02:21:37;;;;;;;3.03;1.70;;;7.40;99.90;;;;;;4095062;28;20080;-70
2024/02/26 02:23:37;;;;;;;3.97;1.92;;;7.40;99.90;;;;;;4096122;28;20032;-70
2024/02/26 02:25:38;;;;;;;4.00;1.58;;;7.40;99.90;;;;;;4093950;28;20051;-71
2024/02/26 02:27:40;;;;;;;3.42;1.60;;;7.30;99.90;;;;;;4095316;28;20030;-69
2024/02/26 02:29:41;;;;;;;3.30;1.50;;;7.30;99.90;;;;;;4094000;28;20050;-70
2024/02/26 02:31:41;;;;;;;4.32;1.80;;;7.30;99.90;;;;;;4094450;28;20031;-70
2024/02/26 02:33:43;;;;;;;3.83;1.70;;;7.30;99.90;;;;;;4094089;28;20065;-69
2024/02/26 02:35:44;;;;;;;3.35;1.58;;;7.30;99.90;;;;;;4093792;28;20114;-69
2024/02/26 02:37:44;;;;;;;3.60;1.65;;;7.30;99.90;;;;;;4080099;29;20031;-70
2024/02/26 02:39:48;;;;;;;3.17;1.60;;;7.30;99.90;;;;;;4085372;29;20031;-70
2024/02/26 02:41:48;;;;;;;4.53;2.00;;;7.20;99.90;;;;;;4098894;28;20037;-70
2024/02/26 02:43:49;;;;;;;4.85;2.20;;;7.30;99.90;;;;;;4098553;28;20039;-71
2024/02/26 02:45:49;;;;;;;4.63;1.83;;;7.30;99.90;;;;;;4077222;29;20039;-71
2024/02/26 02:47:50;;;;;;;3.28;1.80;;;7.30;99.90;;;;;;4094402;28;20034;-70
2024/02/26 02:49:51;;;;;;;3.65;1.80;;;7.30;99.90;;;;;;4093316;28;20035;-70
2024/02/26 02:51:53;;;;;;;4.30;2.22;;;7.30;99.90;;;;;;4094335;28;20432;-71
2024/02/26 02:53:53;;;;;;;3.60;1.98;;;7.30;99.90;;;;;;4091725;28;20469;-71
2024/02/26 02:55:54;;;;;;;7.07;2.70;;;7.30;99.90;;;;;;4091636;28;20035;-69
2024/02/26 02:57:55;;;;;;;7.78;2.72;;;7.30;99.90;;;;;;4094912;28;20043;-69
2024/02/26 02:59:55;;;;;;;6.47;2.85;;;7.30;99.90;;;;;;4101487;28;20062;-69
2024/02/26 03:01:56;;;;;;;7.95;3.63;;;7.30;99.90;;;;;;4090694;28;20039;-70
2024/02/26 03:03:57;;;;;;;9.93;3.88;;;7.30;99.90;;;;;;4086428;29;20638;-69
2024/02/26 03:05:57;;;;;;;7.07;3.05;;;7.20;99.90;;;;;;4092020;28;20035;-69
2024/02/26 03:07:58;;;;;;;6.68;2.88;;;7.20;99.90;;;;;;4094426;28;20037;-69
2024/02/26 03:09:59;;;;;;;6.80;3.15;;;7.10;99.90;;;;;;4094151;28;20581;-70
2024/02/26 03:11:59;;;;;;;8.27;2.38;;;7.10;99.90;;;;;;4077286;28;20035;-69
2024/02/26 03:14:02;;;;;;;3.33;2.15;;;7.10;99.90;;;;;;4092241;28;20053;-69
2024/02/26 03:16:06;;;;;;;4.25;2.47;;;7.10;99.90;;;;;;4094323;28;20062;-69
2024/02/26 03:18:06;;;;;;;3.33;2.00;;;7.10;99.90;;;;;;4093593;28;20394;-69
2024/02/26 03:20:09;;;;;;;6.00;2.38;;;7.00;99.90;;;;;;4093407;28;20031;-68
2024/02/26 03:22:10;;;;;;;6.07;2.60;;;7.10;99.90;;;;;;4090721;29;20110;-68
2024/02/26 03:24:10;;;;;;;5.45;2.40;;;7.00;99.90;;;;;;4100401;28;20769;-70
2024/02/26 03:26:14;;;;;;;5.93;2.40;;;7.10;99.90;;;;;;4090396;28;20047;-69
2024/02/26 03:28:15;;;;;;;5.75;3.00;;;7.10;99.90;;;;;;4078752;28;20804;-70
2024/02/26 03:30:16;;;;;;;8.48;2.80;;;7.10;99.90;;;;;;4060095;29;20036;-68
2024/02/26 03:32:17;;;;;;;10.30;3.15;;;7.00;99.90;;;;;;4078670;29;20409;-69
2024/02/26 03:34:19;;;;;;;6.45;3.13;;;7.00;99.90;;;;;;4073310;29;20047;-69
2024/02/26 03:36:21;;;;;;;;;;;7.00;99.90;;;;;;4078596;29;20414;-70
2024/02/26 03:38:22;;;;;;;7.57;2.85;;;7.00;99.90;;;;;;4065670;29;20382;-70
2024/02/26 03:40:24;;;;;;;6.05;3.10;;;7.00;99.90;;;;;;4086370;29;20039;-71
2024/02/26 03:42:24;;;;;;;5.07;2.35;;;6.90;99.90;;;;;;4079119;29;20036;-70
2024/02/26 03:44:25;;;;;;;4.85;2.22;;;6.90;99.90;;;;;;4064566;29;20581;-71
2024/02/26 03:46:26;;;;;;;8.40;3.03;;;6.90;99.90;;;;;;4077646;29;20063;-68
2024/02/26 03:48:26;;;;;;;4.00;2.42;;;6.80;99.90;;;;;;4077029;29;20059;-67
2024/02/26 03:50:27;;;;;;;5.40;2.22;;;6.80;99.90;;;;;;4085118;28;20439;-66
2024/02/26 03:52:27;;;;;;;4.22;2.05;;;6.80;99.90;;;;;;4093910;28;20035;-66
2024/02/26 03:54:28;;;;;;;4.43;2.35;;;6.70;99.90;;;;;;4075297;29;20028;-68
2024/02/26 03:56:29;;;;;;;3.45;1.90;;;6.70;99.90;;;;;;4079467;28;20042;-73
2024/02/26 03:58:29;;;;;;;3.78;2.30;;;6.70;99.90;;;;;;4074441;29;20545;-73
2024/02/26 04:00:30;;;;;;;5.00;1.67;;;6.60;99.90;;;;;;4085241;29;20167;-73
2024/02/26 04:02:30;;;;;;;6.35;2.10;;;6.70;99.90;;;;;;4090728;28;20035;-73
2024/02/26 04:04:34;;;;;;;6.93;2.10;;;6.60;99.90;;;;;;4097692;28;20039;-71
2024/02/26 04:06:34;;;;;;;4.20;2.08;;;6.60;99.90;;;;;;4103358;28;20055;-71
2024/02/26 04:08:35;;;;;;;5.68;2.28;;;6.60;99.90;;;;;;4094850;28;20039;-72
2024/02/26 04:10:38;;;;;;;6.13;2.70;;;6.60;99.90;;;;;;4086198;29;20489;-70
2024/02/26 04:12:43;;;;;;;4.68;2.33;;;6.50;99.90;;;;;;4079532;29;20104;-70
2024/02/26 04:14:44;;;;;;;3.97;2.00;;;6.60;99.90;;;;;;4085510;29;20035;-70
2024/02/26 04:16:45;;;;;;;6.28;1.90;;;6.50;99.90;;;;;;4094600;28;20565;-71
2024/02/26 04:18:46;;;;;;;3.08;1.80;;;6.50;99.90;;;;;;4105511;28;20493;-72
2024/02/26 04:20:46;;;;;;;4.13;1.98;;;6.50;99.90;;;;;;4095770;28;20125;-70
2024/02/26 04:22:47;;;;;;;4.88;2.25;;;6.50;99.90;;;;;;4103758;28;20046;-71
2024/02/26 04:24:48;;;;;;;5.05;1.83;;;6.50;99.90;;;;;;4097188;28;20416;-70
2024/02/26 04:26:49;;;;;;;2.83;1.88;;;6.50;99.90;;;;;;4101686;28;20027;-73
2024/02/26 04:28:50;;;;;;;4.03;2.10;;;6.40;99.90;;;;;;4097436;28;20497;-71
2024/02/26 04:30:50;;;;;;;4.05;2.05;;;6.50;99.90;;;;;;4095954;28;20036;-72
2024/02/26 04:32:51;;;;;;;6.45;2.45;;;6.50;99.90;;;;;;4096345;28;20516;-71
2024/02/26 04:34:52;;;;;;;4.85;1.90;;;6.40;99.90;;;;;;4097238;28;20485;-72
2024/02/26 04:36:52;;;;;;;3.47;2.00;;;6.40;99.90;;;;;;4096684;28;20039;-72
2024/02/26 04:38:55;;;;;;;3.63;2.05;;;6.40;99.90;;;;;;4096293;28;20034;-71
2024/02/26 04:40:56;;;;;;;3.72;2.08;;;6.40;99.90;;;;;;4095719;28;20032;-71
2024/02/26 04:42:57;;;;;;;5.05;1.77;;;6.30;99.90;;;;;;4097496;28;20089;-72
2024/02/26 04:44:58;;;;;;;3.72;2.08;;;6.30;99.90;;;;;;4104021;28;20464;-72
2024/02/26 04:46:58;;;;;;;3.63;1.65;;;6.30;99.90;;;;;;4097281;28;20035;-71
2024/02/26 04:48:59;;;;;;;4.38;2.13;;;6.40;99.90;;;;;;4096017;28;20032;-71
2024/02/26 04:51:00;;;;;;;3.72;1.67;;;6.30;99.90;;;;;;4095984;28;20031;-73
2024/02/26 04:53:01;;;;;;;3.33;1.60;;;6.30;99.90;;;;;;4096875;28;20031;-72
2024/02/26 04:55:02;;;;;;;4.13;1.70;;;6.30;99.90;;;;;;4097165;28;20454;-71
2024/02/26 04:57:04;;;;;;;2.53;1.77;;;6.30;99.90;;;;;;4077706;28;20090;-72
2024/02/26 04:59:05;;;;;;;4.60;1.63;;;6.30;99.90;;;;;;4096211;28;20402;-72
2024/02/26 05:01:05;;;;;;;4.05;1.70;;;6.20;99.90;;;;;;4092151;28;20039;-71
2024/02/26 05:03:07;;;;;;;3.72;2.28;;;6.20;99.90;;;;;;4095336;28;20031;-71
2024/02/26 05:05:12;;;;;;;2.57;1.67;;;6.20;99.90;;;;;;4092799;28;20190;-73
2024/02/26 05:07:13;;;;;;;5.32;1.80;;;6.20;99.90;;;;;;4089436;28;20279;-73
2024/02/26 05:09:13;;;;;;;4.45;1.80;;;6.20;99.90;;;;;;4093322;28;20035;-72
2024/02/26 05:11:14;;;;;;;2.42;1.60;;;6.20;99.90;;;;;;4099501;28;20035;-71
2024/02/26 05:13:17;;;;;;;3.20;1.90;;;6.10;99.90;;;;;;4091047;28;20713;-73
2024/02/26 05:15:18;;;;;;;3.55;1.27;;;6.10;99.90;;;;;;4094917;28;20070;-73
2024/02/26 05:17:19;;;;;;;3.83;1.85;;;6.10;99.90;;;;;;4096798;28;20090;-72
2024/02/26 05:19:19;;;;;;;3.80;1.70;;;6.00;99.90;;;;;;4080006;28;20039;-72
2024/02/26 05:21:20;;;;;;;4.82;1.92;;;6.00;99.90;;;;;;4095082;28;20043;-72
2024/02/26 05:23:21;;;;;;;4.03;2.10;;;6.00;99.90;;;;;;4088759;28;20098;-72
2024/02/26 05:25:21;;;;;;;5.75;2.15;;;6.00;99.90;;;;;;4087773;28;20038;-71
2024/02/26 05:27:22;;;;;;;4.95;1.92;;;6.00;99.90;;;;;;4092052;28;20482;-67
2024/02/26 05:29:22;;;;;;;3.88;1.90;;;6.00;99.90;;;;;;4089681;28;20441;-68
2024/02/26 05:31:23;;;;;;;2.83;1.70;;;6.00;99.90;;;;;;4089639;28;20031;-68
2024/02/26 05:33:23;;;;;;;2.97;1.85;;;5.90;99.90;;;;;;4091009;28;20147;-69
2024/02/26 05:35:28;;;;;;;6.18;2.53;;;5.90;99.90;;;;;;4084480;28;20088;-67
2024/02/26 05:37:28;;;;;;;3.15;1.88;;;5.90;99.90;;;;;;4090545;28;20039;-69
2024/02/26 05:39:29;;;;;;;3.13;1.98;;;5.90;99.90;;;;;;4089965;28;20123;-68
2024/02/26 05:41:30;;;;;;;2.92;1.60;;;5.90;99.90;;;;;;4093562;28;20039;-67
2024/02/26 05:43:30;;;;;;;3.22;1.80;;;5.90;99.90;;;;;;4093363;28;20437;-67
2024/02/26 05:45:31;;;;;;;3.30;2.00;;;5.90;99.90;;;;;;4087709;28;20058;-68
2024/02/26 05:47:33;;;;;;;3.75;1.90;;;5.80;99.90;;;;;;4086971;28;20065;-67
2024/02/26 05:49:34;;;;;;;2.80;1.70;;;5.90;99.90;;;;;;4097543;28;20044;-68
2024/02/26 05:51:34;;;;;;;5.38;1.85;;;5.80;99.90;;;;;;4092430;28;20043;-68
2024/02/26 05:53:35;;;;;;;5.05;2.55;;;5.80;99.90;;;;;;4093057;28;20048;-69
2024/02/26 05:55:35;;;;;;;3.63;1.98;;;5.80;99.90;;;;;;4072297;28;20044;-67
2024/02/26 05:57:36;;;;;;;3.78;2.00;;;5.80;99.90;;;;;;4094655;28;20405;-68
2024/02/26 05:59:37;;;;;;;3.00;1.92;;;5.80;99.90;;;;;;4094263;28;20043;-68
2024/02/26 06:01:37;;;;;;;4.30;2.25;;;5.80;99.90;;;;;;4094359;28;20320;-68
2024/02/26 06:03:38;;;;;;;3.83;2.08;;;5.80;99.90;;;;;;4096675;28;20098;-70
2024/02/26 06:05:38;;;;;;;3.20;2.10;;;5.80;99.90;;;;;;4072894;28;20059;-69
2024/02/26 06:07:42;;;;;;;4.95;2.20;;;5.80;99.90;;;;;;4092565;28;20444;-68
2024/02/26 06:09:43;;;;;;;5.43;2.20;;;5.80;99.90;;;;;;4096809;28;20094;-67
2024/02/26 06:11:43;;;;;;;3.33;2.10;;;5.80;99.90;;;;;;4081239;29;20126;-67
2024/02/26 06:13:44;;;;;;;4.15;1.92;;;5.80;99.90;;;;;;4096529;28;20043;-69
2024/02/26 06:15:45;;;;;;;4.90;2.00;;;5.70;99.90;;;;;;4092285;28;20059;-70
2024/02/26 06:17:47;;;;;;;8.40;2.17;;;5.80;99.90;;;;;;4093292;28;20038;-68
2024/02/26 06:19:48;;;;;;;3.85;2.20;;;5.80;99.90;;;;;;4080078;28;20044;-68
2024/02/26 06:21:48;;;;;;;4.43;1.77;;;5.80;99.90;;;;;;4093721;28;20031;-70
2024/02/26 06:23:50;;;;;;;4.47;2.10;;;5.80;99.90;;;;;;4092775;28;20038;-67
2024/02/26 06:25:51;;;;;;;3.95;2.05;;;5.70;99.90;;;;;;4089348;28;20055;-69
2024/02/26 06:27:55;;;;;;;4.35;2.17;;;5.80;99.90;;;;;;4091580;28;20043;-67
2024/02/26 06:29:57;;;;;;;4.30;2.47;;;5.70;99.90;;;;;;4090230;28;20076;-67
2024/02/26 06:31:57;;;;;;;3.38;1.80;;;5.80;99.90;;;;;;4075441;29;20048;-67
2024/02/26 06:33:58;;;;;;;6.55;2.22;;;5.70;99.90;;;;;;4097196;28;20047;-69
2024/02/26 06:35:59;;;;;;;3.55;1.80;;;5.80;99.90;;;;;;4090663;28;20039;-70
2024/02/26 06:38:00;;;;;;;3.80;1.90;;;5.80;99.90;;;;;;4093226;28;20133;-70
2024/02/26 06:40:06;;;;;;;4.00;2.20;;;5.80;99.90;;;;;;4076259;28;20042;-70
2024/02/26 06:42:06;;;;;;;5.07;2.60;;;5.80;99.90;;;;;;4093495;28;20254;-70
2024/02/26 06:44:07;;;;;;;3.70;2.15;;;5.80;99.90;;;;;;4095659;28;20050;-70
2024/02/26 06:46:08;;;;;;;4.28;2.22;;;5.70;99.90;;;;;;4094074;28;20480;-70
2024/02/26 06:48:09;;;;;;;3.90;2.20;;;5.70;99.90;;;;;;4091207;28;21514;-70
2024/02/26 06:50:13;;;;;;;3.40;1.75;;;5.70;99.90;;;;;;4078282;28;20047;-70
2024/02/26 06:52:14;;;;;;;4.05;1.73;;;5.70;99.90;;;;;;4093606;28;20522;-70
2024/02/26 06:54:14;;;;;;;6.70;2.40;;;5.70;99.90;;;;;;4084308;28;20035;-70
2024/02/26 06:56:15;;;;;;;2.80;1.98;;;5.80;99.90;;;;;;4081070;28;20092;-70
2024/02/26 06:58:16;;;;;;;4.53;2.20;;;5.80;99.90;;;;;;4079079;28;20509;-70
2024/02/26 07:00:17;;;;;;;2.35;1.85;;;5.70;99.90;;;;;;4071363;28;20043;-70
2024/02/26 07:02:19;;;;;;;3.50;2.10;;;5.80;99.90;;;;;;4077915;29;20035;-70
2024/02/26 07:04:19;;;;;;;6.63;2.47;;;5.70;99.90;;;;;;4087124;28;20093;-71
2024/02/26 07:06:21;;;;;;;3.72;2.03;;;5.80;99.90;;;;;;4072905;28;20181;-71
2024/02/26 07:08:23;;;;;;;4.20;2.10;;;5.80;99.90;;;;;;4048799;29;20062;-70
2024/02/26 07:10:24;;;;;;;5.20;2.20;;;5.80;99.90;;;;;;4062692;29;20489;-70
2024/02/26 07:12:25;;;;;;;3.33;2.03;;;5.70;99.90;;;;;;4069877;28;20068;-70
2024/02/26 07:14:25;;;;;;;4.97;2.35;;;5.80;99.90;;;;;;4085550;28;20223;-70
2024/02/26 07:16:27;;;;;;;2.97;1.83;;;5.80;99.90;;;;;;4078739;28;20125;-71
2024/02/26 07:18:27;;;;;;;2.75;2.00;;;5.80;99.90;;;;;;4088731;28;20039;-71
2024/02/26 07:20:31;;;;;;;4.63;1.95;;;5.80;99.90;;;;;;4073976;28;20044;-71
2024/02/26 07:22:32;;;;;;;4.65;2.28;;;5.80;99.90;;;;;;4075976;29;20040;-71
2024/02/26 07:24:32;;;;;;;3.85;2.25;;;5.80;99.90;;;;;;4091819;28;20043;-71
2024/02/26 07:26:34;;;;;;;6.55;2.72;;;5.80;99.90;;;;;;4087913;28;20042;-71
2024/02/26 07:28:35;;;;;;;4.47;2.47;;;5.80;99.90;;;;;;4092640;28;20197;-71
2024/02/26 07:30:35;;;;;;;3.50;2.15;;;5.80;99.90;;;;;;4087634;28;20039;-71
2024/02/26 07:32:36;;;;;;;4.63;2.30;;;5.80;99.90;;;;;;4092092;28;20394;-71
2024/02/26 07:34:39;;;;;;;6.45;3.00;;;5.80;99.90;;;;;;4094510;28;20546;-71
2024/02/26 07:36:40;;;;;;;2.45;1.80;;;5.80;99.90;;;;;;4077446;28;21671;-70
2024/02/26 07:38:40;;;;;;;3.80;2.22;;;5.80;99.90;;;;;;4091540;28;20121;-70
2024/02/26 07:40:41;;;;;;;4.28;2.20;;;5.90;99.90;;;;;;4081303;28;20043;-71
2024/02/26 07:42:41;;;;;;;5.13;2.40;;;5.90;99.90;;;;;;4091629;28;20465;-71
2024/02/26 07:44:43;;;;;;;4.15;2.30;;;5.80;99.90;;;;;;4089428;28;20119;-71
2024/02/26 07:46:44;;;;;;;3.78;2.55;;;5.90;99.90;;;;;;4082826;28;20929;-69
2024/02/26 07:48:44;;;;;;;3.17;2.10;;;5.90;99.90;;;;;;4089470;28;20035;-69
2024/02/26 07:50:45;;;;;;;3.67;2.10;;;5.90;99.90;;;;;;4071232;28;20036;-69
2024/02/26 07:52:46;;;;;;;3.75;2.13;;;5.80;99.90;;;;;;4089530;28;20063;-69
2024/02/26 07:54:47;;;;;;;4.63;2.00;;;5.90;99.90;;;;;;4087954;28;20043;-70
2024/02/26 07:56:47;;;;;;;6.40;2.20;;;5.90;99.90;;;;;;4069393;28;20155;-70
2024/02/26 07:58:48;;;;;;;3.58;2.15;;;5.90;99.90;;;;;;4092628;28;20429;-69
2024/02/26 08:00:49;;;;;;;2.92;2.20;;;5.90;99.90;;;;;;4071619;28;20520;-68
2024/02/26 08:02:50;;;;;;;3.67;2.40;;;5.90;99.90;;;;;;4075735;28;20043;-69
2024/02/26 08:04:50;;;;;;;3.05;2.03;;;5.90;99.90;;;;;;4089291;28;20043;-71
2024/02/26 08:06:51;;;;;;;3.20;2.10;;;5.80;99.90;;;;;;4087369;28;20043;-68
2024/02/26 08:08:52;;;;;;;4.18;2.25;;;5.80;99.90;;;;;;4088424;28;20110;-69
2024/02/26 08:10:53;;;;;;;4.43;2.28;;;5.90;99.90;;;;;;4085522;28;20513;-70
2024/02/26 08:12:53;;;;;;;4.53;2.10;;;5.80;99.90;;;;;;4073398;28;20031;-68
2024/02/26 08:14:55;;;;;;;3.88;1.95;;;5.80;99.90;;;;;;4087949;28;20039;-71
2024/02/26 08:16:56;;;;;;;4.97;2.13;;;5.80;99.90;;;;;;4086729;28;20061;-70
2024/02/26 08:18:57;;;;;;;6.57;2.40;;;5.80;99.90;;;;;;4078856;28;20124;-69
2024/02/26 08:20:58;;;;;;;3.10;2.20;;;5.80;99.90;;;;;;4087875;28;20437;-69
2024/02/26 08:22:58;;;;;;;3.80;2.25;;;5.80;99.90;;;;;;4092578;28;20048;-69
2024/02/26 08:24:59;;;;;;;6.25;2.30;;;5.80;99.90;;;;;;4091223;28;20039;-68
2024/02/26 08:27:00;;;;;;;5.60;2.20;;;5.80;99.90;;;;;;4090730;28;20400;-68
2024/02/26 08:29:01;;;;;;;3.72;2.05;;;5.90;99.90;;;;;;4075010;28;20040;-68
2024/02/26 08:31:01;;;;;;;3.53;2.25;;;5.90;99.90;;;;;;4068658;29;20043;-68
2024/02/26 08:33:02;;;;;;;3.90;2.25;;;5.90;99.90;;;;;;4092951;28;20036;-69
2024/02/26 08:35:03;;;;;;;2.80;1.70;;;5.90;99.90;;;;;;4089191;28;20039;-71
2024/02/26 08:37:05;;;;;;;3.25;1.70;;;5.90;99.90;;;;;;4092086;28;20456;-70
2024/02/26 08:39:08;;;;;;;3.30;2.10;;;5.90;99.90;;;;;;4075379;29;20042;-68
2024/02/26 08:41:10;;;;;;;3.65;2.10;;;5.90;99.90;;;;;;4086463;28;20049;-69
2024/02/26 08:43:10;;;;;;;2.65;1.85;;;5.90;99.90;;;;;;4089230;28;20023;-71
2024/02/26 08:45:15;;;;;;;3.50;2.00;;;5.90;99.90;;;;;;4087638;28;20050;-69
2024/02/26 08:47:16;;;;;;;4.03;2.15;;;5.90;99.90;;;;;;4072655;28;20024;-67
2024/02/26 08:49:17;;;;;;;4.97;2.20;;;5.90;99.90;;;;;;4091619;28;20741;-70
2024/02/26 08:51:18;;;;;;;5.63;2.40;;;5.90;99.90;;;;;;4076242;29;20053;-71
2024/02/26 08:53:18;;;;;;;4.03;2.00;;;6.00;99.90;;;;;;4082073;28;20617;-71
2024/02/26 08:55:20;;;;;;;4.22;2.35;;;6.00;99.90;;;;;;4091552;28;20425;-69
2024/02/26 08:57:21;;;;;;;3.25;2.17;;;5.90;99.90;;;;;;4088898;28;20412;-69
2024/02/26 08:59:23;;;;;;;3.90;2.08;;;6.00;99.90;;;;;;4072500;28;20160;-69
2024/02/26 09:01:24;;;;;;;3.95;2.15;;;6.00;99.90;;;;;;4087771;28;20039;-68
2024/02/26 09:03:26;;;;;;;3.78;2.20;;;6.00;99.90;;;;;;4073246;28;20473;-69
2024/02/26 09:05:26;;;;;;;4.55;2.35;;;6.00;99.90;;;;;;4085284;28;20039;-69
2024/02/26 09:07:28;;;;;;;4.30;2.03;;;6.00;99.90;;;;;;4077404;28;20111;-69
2024/02/26 09:09:29;;;;;;;4.30;2.42;;;6.10;99.90;;;;;;4095709;28;20517;-69
2024/02/26 09:11:30;;;;;;;3.63;2.20;;;6.10;99.90;;;;;;4091651;28;20139;-69
2024/02/26 09:13:31;;;;;;;5.07;2.35;;;6.10;99.90;;;;;;4094956;28;20035;-69
2024/02/26 09:15:32;;;;;;;3.55;2.10;;;6.10;99.90;;;;;;4089690;28;20094;-68
2024/02/26 09:17:33;;;;;;;4.10;2.10;;;6.10;99.90;;;;;;4082216;29;20122;-68
2024/02/26 09:19:33;;;;;;;3.17;2.30;;;6.10;99.90;;;;;;4093759;28;20126;-71
2024/02/26 09:21:34;;;;;;;4.30;1.90;;;6.10;99.90;;;;;;4075633;29;20044;-68
2024/02/26 09:23:35;;;;;;;3.35;1.85;;;6.20;99.90;;;;;;4094577;28;20078;-70
2024/02/26 09:25:35;;;;;;;3.53;2.10;;;6.20;99.90;;;;;;4095188;28;20624;-69
2024/02/26 09:27:36;;;;;;;4.95;2.40;;;6.10;99.90;;;;;;4096325;28;20634;-67
2024/02/26 09:29:37;;;;;;;4.00;2.38;;;6.10;99.90;;;;;;4093231;28;20061;-71
2024/02/26 09:31:40;;;;;;;2.83;1.92;;;6.20;99.90;;;;;;4091518;28;20454;-69
2024/02/26 09:33:40;;;;;;;3.95;2.50;;;6.20;99.90;;;;;;4076308;28;20122;-69
2024/02/26 09:35:41;;;;;;;6.18;2.20;;;6.20;99.90;;;;;;4092960;28;20126;-70
2024/02/26 09:37:43;;;;;;;3.10;2.20;;;6.20;99.90;;;;;;4094570;28;20134;-68
2024/02/26 09:39:44;;;;;;;7.47;2.80;;;6.20;99.90;;;;;;4094130;28;20651;-69
2024/02/26 09:41:45;;;;;;;5.70;2.30;;;6.20;99.90;;;;;;4095938;28;20035;-71
2024/02/26 09:43:46;;;;;;;4.22;2.30;;;6.20;99.90;;;;;;4094907;28;20078;-69
2024/02/26 09:45:50;;;;;;;4.47;2.53;;;6.20;99.90;;;;;;4091048;28;20053;-68
2024/02/26 09:47:50;;;;;;;3.00;1.90;;;6.10;99.90;;;;;;4093839;28;20054;-69
2024/02/26 09:49:53;;;;;;;4.20;2.40;;;6.20;99.90;;;;;;4094267;28;20497;-68
2024/02/26 09:51:56;;;;;;;3.40;1.92;;;6.20;99.90;;;;;;4092956;28;20062;-68
2024/02/26 09:54:01;;;;;;;3.22;2.17;;;6.20;99.90;;;;;;4095310;28;20054;-69
2024/02/26 09:56:02;;;;;;;3.97;2.10;;;6.10;99.90;;;;;;4089901;28;20043;-70
2024/02/26 09:58:05;;;;;;;5.13;2.38;;;6.10;99.90;;;;;;4084966;28;20507;-69
2024/02/26 10:00:10;;;;;;;2.78;1.80;;;6.10;99.90;;;;;;4089022;28;20038;-70
2024/02/26 10:02:14;;;;;;;5.28;2.20;;;6.10;99.90;;;;;;4074348;28;20098;-70
2024/02/26 10:04:15;;;;;;;4.90;2.13;;;6.10;99.90;;;;;;4082933;28;20605;-68
2024/02/26 10:06:16;;;;;;;2.75;2.03;;;6.10;99.90;;;;;;4091091;28;20063;-70
2024/02/26 10:08:18;;;;;;;5.80;2.13;;;6.10;99.90;;;;;;4093692;28;20529;-70
2024/02/26 10:10:19;;;;;;;3.30;2.10;;;6.10;99.90;;;;;;4093152;28;20039;-71
2024/02/26 10:12:20;;;;;;;3.85;2.15;;;6.10;99.90;;;;;;4092156;28;20392;-70
2024/02/26 10:14:21;;;;;;;4.22;1.98;;;6.10;99.90;;;;;;4094904;28;20174;-71
2024/02/26 10:16:22;;;;;;;4.38;1.95;;;6.10;99.90;;;;;;4085342;28;20624;-70
2024/02/26 10:18:24;;;;;;;5.38;2.08;;;6.10;99.90;;;;;;4089065;28;20051;-70
2024/02/26 10:20:26;;;;;;;4.43;2.25;;;6.20;99.90;;;;;;4089507;28;20074;-70
2024/02/26 10:22:27;;;;;;;2.55;1.83;;;6.20;99.90;;;;;;4084071;28;20541;-70
2024/02/26 10:24:29;;;;;;;4.47;2.42;;;6.20;99.90;;;;;;4075884;29;20118;-70
2024/02/26 10:26:30;;;;;;;2.90;2.30;;;6.20;99.90;;;;;;4075239;29;20048;-71
2024/02/26 10:28:31;;;;;;;5.78;2.47;;;6.20;99.90;;;;;;4095152;28;20497;-70
2024/02/26 10:30:31;;;;;;;4.10;2.65;;;6.20;99.90;;;;;;4079385;28;20865;-70
2024/02/26 10:32:33;;;;;;;3.95;2.22;;;6.20;99.90;;;;;;4089864;28;20043;-70
2024/02/26 10:34:37;;;;;;;4.78;2.25;;;6.30;99.90;;;;;;4091351;28;20122;-70
2024/02/26 10:36:41;;;;;;;4.65;2.25;;;6.30;99.90;;;;;;4087278;28;20490;-70
2024/02/26 10:38:41;;;;;;;6.53;2.40;;;6.30;99.90;;;;;;4072388;29;20038;-70